createdAt,value
2018-05-14T00:01:36.245Z,24.95
2018-05-14T00:04:03.370Z,25.23
2018-05-14T00:06:30.170Z,23.33
2018-05-14T00:08:56.551Z,24.90
2018-05-14T00:11:22.882Z,23.62
2018-05-14T00:13:49.315Z,24.58
2018-05-14T00:16:15.722Z,24.55
2018-05-14T00:18:42.762Z,22.15
2018-05-14T00:21:09.222Z,22.95
2018-05-14T00:23:35.526Z,22.55
2018-05-14T00:26:01.905Z,23.58
2018-05-14T00:28:28.954Z,24.50
2018-05-14T00:30:56.007Z,21.90
2018-05-14T00:33:22.349Z,19.65
2018-05-14T00:35:48.681Z,21.75
2018-05-14T00:38:15.018Z,19.90
2018-05-14T00:40:41.318Z,19.75
2018-05-14T00:43:08.535Z,20.40
2018-05-14T00:45:34.831Z,20.35
2018-05-14T00:48:01.210Z,17.05
2018-05-14T00:50:27.571Z,12.95
2018-05-14T00:52:53.912Z,14.38
2018-05-14T00:55:20.225Z,12.32
2018-05-14T00:57:46.553Z,9.50
2018-05-14T01:00:12.903Z,11.00
2018-05-14T01:02:39.222Z,9.98
2018-05-14T01:05:05.640Z,10.60
2018-05-14T01:07:32.693Z,7.70
2018-05-14T01:09:59.010Z,9.20
2018-05-14T01:12:26.076Z,9.45
2018-05-14T01:14:52.537Z,7.70
2018-05-14T01:17:18.769Z,9.75
2018-05-14T01:19:45.082Z,7.68
2018-05-14T01:22:11.395Z,6.55
2018-05-14T01:24:37.755Z,6.60
2018-05-14T01:27:04.107Z,5.30
2018-05-14T01:29:30.480Z,5.37
2018-05-14T01:31:56.783Z,4.97
2018-05-14T01:34:23.837Z,4.65
2018-05-14T01:36:50.880Z,5.60
2018-05-14T01:39:17.957Z,4.65
2018-05-14T01:41:44.278Z,5.05
2018-05-14T01:44:10.715Z,5.80
2018-05-14T01:46:37.309Z,5.68
2018-05-14T01:49:03.656Z,6.68
2018-05-14T01:51:30.725Z,6.10
2018-05-14T01:53:57.014Z,9.38
2018-05-14T01:56:23.381Z,13.18
2018-05-14T01:58:49.685Z,11.30
2018-05-14T02:01:16.777Z,10.38
2018-05-14T02:03:43.076Z,9.60
2018-05-14T02:06:10.156Z,10.70
2018-05-14T02:08:36.446Z,10.82
2018-05-14T02:11:03.529Z,10.05
2018-05-14T02:13:29.860Z,8.98
2018-05-14T02:15:56.177Z,9.75
2018-05-14T02:18:22.464Z,8.18
2018-05-14T02:20:49.529Z,8.82
2018-05-14T02:23:16.603Z,8.45
2018-05-14T02:25:42.932Z,7.43
2018-05-14T02:28:09.267Z,13.57
2018-05-14T02:30:35.589Z,10.52
2018-05-14T02:33:01.920Z,11.40
2018-05-14T02:35:28.261Z,12.30
2018-05-14T02:37:54.582Z,13.90
2018-05-14T02:40:20.896Z,13.95
2018-05-14T02:42:47.204Z,12.60
2018-05-14T02:45:14.290Z,17.17
2018-05-14T02:47:40.626Z,13.48
2018-05-14T02:50:06.987Z,10.40
2018-05-14T02:52:33.347Z,9.23
2018-05-14T02:55:00.539Z,11.68
2018-05-14T02:57:26.915Z,10.00
2018-05-14T02:59:54.013Z,9.35
2018-05-14T03:02:20.438Z,8.60
2018-05-14T03:04:46.820Z,10.57
2018-05-14T03:07:13.122Z,12.20
2018-05-14T03:09:39.483Z,12.55
2018-05-14T03:12:05.826Z,12.77
2018-05-14T03:14:32.194Z,11.48
2018-05-14T03:16:58.522Z,13.15
2018-05-14T03:19:24.857Z,13.02
2018-05-14T03:21:51.242Z,13.85
2018-05-14T03:24:18.359Z,11.40
2018-05-14T03:26:45.246Z,9.73
2018-05-14T03:29:11.546Z,10.43
2018-05-14T03:31:37.879Z,8.77
2018-05-14T03:34:04.172Z,9.48
2018-05-14T03:36:30.476Z,9.02
2018-05-14T03:38:56.796Z,8.98
2018-05-14T03:41:23.165Z,9.40
2018-05-14T03:43:49.474Z,11.05
2018-05-14T03:46:15.836Z,10.30
2018-05-14T03:48:42.196Z,11.65
2018-05-14T03:51:09.273Z,12.18
2018-05-14T03:53:35.681Z,12.68
2018-05-14T03:56:02.779Z,10.88
2018-05-14T04:01:53.644Z,8.32
2018-05-14T04:04:39.066Z,14.63
2018-05-14T04:07:05.438Z,10.68
2018-05-14T04:09:31.754Z,10.80
2018-05-14T04:11:58.059Z,9.32
2018-05-14T04:14:24.410Z,11.07
2018-05-14T04:16:50.962Z,9.43
2018-05-14T04:19:18.192Z,7.60
2018-05-14T04:21:44.538Z,8.52
2018-05-14T04:24:10.895Z,7.60
2018-05-14T04:26:37.310Z,7.72
2018-05-14T04:29:04.475Z,7.12
2018-05-14T04:31:30.800Z,8.68
2018-05-14T04:33:57.930Z,9.07
2018-05-14T04:36:25.035Z,7.68
2018-05-14T04:38:51.389Z,7.40
2018-05-14T04:41:17.729Z,7.53
2018-05-14T04:43:44.090Z,8.10
2018-05-14T04:46:11.213Z,7.95
2018-05-14T04:48:37.533Z,8.30
2018-05-14T04:51:05.779Z,8.65
2018-05-14T04:53:32.189Z,9.10
2018-05-14T04:55:58.477Z,8.45
2018-05-14T04:58:24.774Z,7.75
2018-05-14T05:00:51.231Z,8.15
2018-05-14T05:03:17.542Z,8.02
2018-05-14T05:05:43.874Z,8.63
2018-05-14T05:08:10.288Z,7.10
2018-05-14T05:10:36.828Z,7.05
2018-05-14T05:13:03.123Z,6.35
2018-05-14T05:15:29.459Z,7.10
2018-05-14T05:17:55.850Z,5.60
2018-05-14T05:20:22.127Z,6.10
2018-05-14T05:22:48.550Z,6.10
2018-05-14T05:25:14.993Z,7.25
2018-05-14T05:27:41.395Z,6.75
2018-05-14T05:30:08.518Z,7.90
2018-05-14T05:32:34.858Z,8.48
2018-05-14T05:35:01.953Z,8.65
2018-05-14T05:37:28.362Z,9.27
2018-05-14T05:39:54.717Z,8.93
2018-05-14T05:42:21.130Z,8.55
2018-05-14T05:44:47.474Z,8.20
2018-05-14T05:47:13.790Z,10.30
2018-05-14T05:49:40.306Z,10.98
2018-05-14T05:52:07.565Z,9.90
2018-05-14T05:54:34.705Z,9.45
2018-05-14T05:57:01.756Z,10.07
2018-05-14T05:59:28.853Z,12.37
2018-05-14T06:01:55.151Z,11.90
2018-05-14T06:04:21.480Z,9.60
2018-05-14T06:06:47.811Z,10.80
2018-05-14T06:09:14.145Z,11.90
2018-05-14T06:11:40.452Z,10.43
2018-05-14T06:14:07.612Z,10.20
2018-05-14T06:16:33.954Z,8.52
2018-05-14T06:19:00.290Z,8.32
2018-05-14T06:21:26.717Z,8.93
2018-05-14T06:23:57.143Z,8.80
2018-05-14T06:26:23.464Z,9.25
2018-05-14T06:28:49.770Z,8.48
2018-05-14T06:31:16.914Z,8.13
2018-05-14T06:33:44.001Z,8.98
2018-05-14T06:36:10.337Z,9.43
2018-05-14T06:38:36.690Z,9.25
2018-05-14T06:41:03.065Z,7.70
2018-05-14T06:43:29.405Z,9.00
2018-05-14T06:45:55.759Z,9.23
2018-05-14T06:48:22.071Z,8.25
2018-05-14T06:50:48.596Z,8.85
2018-05-14T06:53:14.938Z,10.80
2018-05-14T06:55:41.296Z,11.20
2018-05-14T06:58:07.623Z,14.55
2018-05-14T07:00:34.020Z,16.30
2018-05-14T07:03:00.285Z,12.52
2018-05-14T07:05:26.653Z,13.15
2018-05-14T07:07:53.734Z,10.60
2018-05-14T07:10:20.173Z,10.27
2018-05-14T07:12:46.658Z,11.15
2018-05-14T07:15:13.723Z,11.30
2018-05-14T07:17:40.786Z,10.18
2018-05-14T07:20:07.123Z,10.88
2018-05-14T07:22:33.498Z,9.35
2018-05-14T07:24:59.829Z,11.45
2018-05-14T07:27:26.214Z,11.57
2018-05-14T07:29:52.750Z,10.55
2018-05-14T07:32:19.089Z,12.15
2018-05-14T07:34:45.526Z,11.85
2018-05-14T07:37:12.582Z,12.13
2018-05-14T07:39:38.984Z,12.18
2018-05-14T07:42:05.867Z,10.80
2018-05-14T07:44:32.229Z,11.70
2018-05-14T07:46:58.600Z,10.77
2018-05-14T07:49:24.972Z,12.18
2018-05-14T07:51:51.302Z,11.65
2018-05-14T07:54:17.700Z,12.13
2018-05-14T07:56:44.121Z,12.43
2018-05-14T07:59:10.494Z,12.57
2018-05-14T08:01:36.989Z,13.10
2018-05-14T08:04:03.428Z,10.90
2018-05-14T08:06:30.077Z,12.77
2018-05-14T08:08:56.398Z,12.77
2018-05-14T08:11:22.755Z,14.63
2018-05-14T08:13:49.253Z,13.07
2018-05-14T08:16:15.472Z,13.32
2018-05-14T08:18:41.826Z,13.38
2018-05-14T08:21:08.149Z,11.88
2018-05-14T08:23:35.275Z,12.77
2018-05-14T08:26:01.639Z,13.85
2018-05-14T08:28:28.035Z,14.68
2018-05-14T08:30:54.338Z,13.77
2018-05-14T08:33:21.436Z,14.87
2018-05-14T08:35:47.793Z,13.30
2018-05-14T08:38:14.141Z,13.68
2018-05-14T08:40:41.240Z,16.10
2018-05-14T08:43:07.565Z,13.77
2018-05-14T08:45:33.880Z,15.20
2018-05-14T08:48:00.361Z,15.55
2018-05-14T08:50:26.663Z,15.75
2018-05-14T08:52:52.998Z,16.10
2018-05-14T08:55:19.456Z,16.83
2018-05-14T08:57:45.743Z,17.95
2018-05-14T09:00:12.591Z,18.27
2018-05-14T09:02:38.921Z,19.35
2018-05-14T09:05:05.258Z,19.45
2018-05-14T09:07:31.696Z,19.05
2018-05-14T09:09:58.064Z,18.45
2018-05-14T09:12:25.283Z,19.80
2018-05-14T09:14:51.591Z,20.40
2018-05-14T09:17:17.937Z,21.50
2018-05-14T09:19:44.349Z,22.25
2018-05-14T09:22:10.693Z,22.20
2018-05-14T09:24:37.047Z,22.02
2018-05-14T09:27:04.137Z,21.45
2018-05-14T09:29:30.591Z,22.15
2018-05-14T09:31:56.956Z,21.55
2018-05-14T09:34:24.027Z,23.50
2018-05-14T09:36:50.383Z,21.33
2018-05-14T09:39:16.926Z,23.65
2018-05-14T09:41:43.543Z,21.30
2018-05-14T09:44:09.977Z,21.53
2018-05-14T09:46:36.331Z,20.77
2018-05-14T09:49:02.716Z,20.60
2018-05-14T09:51:29.799Z,23.10
2018-05-14T09:53:56.137Z,23.23
2018-05-14T09:56:22.551Z,23.90
2018-05-14T09:58:48.894Z,24.77
2018-05-14T10:01:15.230Z,22.75
2018-05-14T10:03:42.574Z,23.25
2018-05-14T10:06:08.915Z,24.65
2018-05-14T10:08:35.298Z,24.40
2018-05-14T10:11:01.640Z,24.60
2018-05-14T10:13:28.046Z,25.65
2018-05-14T10:15:55.120Z,26.45
2018-05-14T10:18:21.415Z,27.45
2018-05-14T10:20:47.920Z,29.75
2018-05-14T10:23:14.274Z,29.98
2018-05-14T10:25:41.369Z,28.67
2018-05-14T10:28:07.756Z,27.37
2018-05-14T10:30:34.179Z,28.77
2018-05-14T10:33:00.601Z,28.27
2018-05-14T10:35:27.099Z,26.75
2018-05-14T10:37:53.455Z,27.52
2018-05-14T10:40:19.801Z,27.37
2018-05-14T10:42:46.195Z,29.23
2018-05-14T10:45:12.528Z,30.60
2018-05-14T10:47:38.886Z,28.60
2018-05-14T10:50:05.207Z,29.10
2018-05-14T10:52:31.561Z,29.65
2018-05-14T10:54:58.638Z,27.55
2018-05-14T10:57:25.014Z,29.92
2018-05-14T10:59:51.365Z,27.77
2018-05-14T11:02:17.693Z,28.98
2018-05-14T11:04:44.070Z,29.17
2018-05-14T11:07:10.414Z,28.17
2018-05-14T11:09:36.822Z,29.83
2018-05-14T11:12:03.161Z,29.43
2018-05-14T11:14:29.607Z,28.30
2018-05-14T11:16:55.927Z,26.67
2018-05-14T11:19:22.355Z,26.00
2018-05-14T11:21:48.710Z,24.70
2018-05-14T11:24:15.798Z,23.10
2018-05-14T11:26:42.874Z,24.70
2018-05-14T11:29:09.225Z,25.37
2018-05-14T11:31:36.324Z,24.83
2018-05-14T11:34:03.442Z,24.00
2018-05-14T11:36:29.733Z,22.80
2018-05-14T11:38:56.073Z,25.63
2018-05-14T11:41:22.418Z,26.80
2018-05-14T11:43:48.758Z,24.87
2018-05-14T11:46:15.071Z,25.90
2018-05-14T11:48:41.391Z,26.43
2018-05-14T11:51:07.750Z,24.00
2018-05-14T11:53:34.080Z,24.63
2018-05-14T11:56:00.413Z,25.40
2018-05-14T11:58:27.072Z,25.10
2018-05-14T12:00:53.551Z,26.37
2018-05-14T12:03:19.912Z,26.80
2018-05-14T12:05:46.244Z,28.60
2018-05-14T12:08:12.553Z,28.57
2018-05-14T12:10:38.918Z,28.63
2018-05-14T12:13:05.266Z,27.53
2018-05-14T12:15:32.444Z,28.80
2018-05-14T12:17:58.762Z,29.00
2018-05-14T12:20:25.111Z,26.13
2018-05-14T12:22:52.122Z,26.97
2018-05-14T12:25:19.198Z,26.80
2018-05-14T12:27:45.482Z,27.70
2018-05-14T12:30:12.579Z,28.53
2018-05-14T12:32:38.896Z,28.80
2018-05-14T12:35:05.300Z,27.40
2018-05-14T12:37:32.480Z,28.53
2018-05-14T12:39:58.804Z,27.53
2018-05-14T12:42:25.168Z,27.00
2018-05-14T12:44:51.544Z,27.10
2018-05-14T12:47:18.663Z,27.03
2018-05-14T12:49:44.972Z,27.07
2018-05-14T12:52:11.319Z,27.70
2018-05-14T12:54:37.626Z,26.50
2018-05-14T12:57:04.003Z,27.87
2018-05-14T12:59:31.105Z,25.10
2018-05-14T13:01:57.439Z,27.70
2018-05-14T13:04:23.798Z,28.50
2018-05-14T13:06:50.123Z,26.87
2018-05-14T13:09:16.520Z,27.20
2018-05-14T13:11:42.994Z,28.57
2018-05-14T13:14:10.130Z,28.30
2018-05-14T13:16:36.589Z,27.10
2018-05-14T13:19:03.717Z,28.10
2018-05-14T13:21:37.063Z,29.13
2018-05-14T13:24:03.457Z,27.70
2018-05-14T13:26:30.613Z,30.20
2018-05-14T13:28:57.753Z,30.50
2018-05-14T13:31:24.870Z,29.80
2018-05-14T13:33:51.190Z,31.80
2018-05-14T13:36:17.553Z,29.60
2018-05-14T13:38:44.717Z,30.30
2018-05-14T13:41:11.853Z,29.03
2018-05-14T13:43:38.941Z,28.53
2018-05-14T13:46:05.344Z,28.60
2018-05-14T13:48:32.484Z,29.73
2018-05-14T13:50:58.934Z,27.23
2018-05-14T13:53:25.982Z,29.83
2018-05-14T13:55:52.388Z,28.63
2018-05-14T13:58:18.713Z,27.93
2018-05-14T14:00:45.084Z,30.80
2018-05-14T14:03:11.442Z,29.27
2018-05-14T14:05:38.327Z,29.77
2018-05-14T14:08:05.408Z,29.00
2018-05-14T14:10:31.739Z,28.47
2018-05-14T14:12:58.066Z,27.87
2018-05-14T14:15:24.530Z,27.10
2018-05-14T14:17:50.859Z,26.60
2018-05-14T14:20:17.245Z,27.40
2018-05-14T14:22:43.660Z,26.40
2018-05-14T14:25:10.800Z,26.40
2018-05-14T14:27:37.186Z,24.37
2018-05-14T14:30:03.619Z,22.80
2018-05-14T14:32:29.957Z,26.30
2018-05-14T14:34:56.281Z,25.77
2018-05-14T14:37:22.606Z,27.70
2018-05-14T14:39:49.028Z,26.30
2018-05-14T14:42:15.483Z,26.20
2018-05-14T14:44:42.013Z,25.60
2018-05-14T14:47:08.663Z,28.00
2018-05-14T14:49:35.030Z,27.43
2018-05-14T14:52:01.538Z,28.03
2018-05-14T14:54:27.947Z,30.37
2018-05-14T14:56:54.262Z,34.43
2018-05-14T14:59:20.701Z,18.23
2018-05-14T15:01:47.324Z,20.17
2018-05-14T15:04:13.699Z,22.40
2018-05-14T15:06:40.053Z,23.60
2018-05-14T15:09:07.168Z,25.60
2018-05-14T15:11:33.530Z,28.43
2018-05-14T15:14:00.719Z,28.40
2018-05-14T15:16:27.113Z,31.27
2018-05-14T15:18:54.374Z,28.10
2018-05-14T15:21:20.726Z,30.73
2018-05-14T15:23:47.056Z,33.60
2018-05-14T15:26:13.462Z,36.50
2018-05-14T15:28:39.837Z,38.30
2018-05-14T15:31:06.202Z,36.77
2018-05-14T15:33:32.587Z,37.50
2018-05-14T15:35:58.976Z,39.97
2018-05-14T15:38:26.095Z,45.50
2018-05-14T15:40:53.298Z,50.60
2018-05-14T15:43:19.631Z,52.30
2018-05-14T15:45:46.508Z,51.13
2018-05-14T15:48:13.784Z,50.90
2018-05-14T15:50:40.927Z,50.73
2018-05-14T15:53:08.163Z,51.80
2018-05-14T15:55:34.798Z,49.17
2018-05-14T15:58:01.216Z,46.10
2018-05-14T16:00:27.600Z,40.37
2018-05-14T16:02:54.755Z,39.57
2018-05-14T16:05:21.221Z,42.37
2018-05-14T16:07:48.147Z,42.50
2018-05-14T16:10:14.569Z,46.87
2018-05-14T16:12:40.951Z,44.10
2018-05-14T16:15:08.499Z,44.00
2018-05-14T16:17:34.906Z,44.70
2018-05-14T16:20:02.068Z,45.70
2018-05-14T16:22:28.465Z,45.33
2018-05-14T16:24:54.862Z,45.17
2018-05-14T16:27:22.063Z,41.83
2018-05-14T16:29:48.559Z,43.60
2018-05-14T16:32:15.708Z,42.90
2018-05-14T16:34:42.510Z,41.70
2018-05-14T16:37:09.097Z,38.23
2018-05-14T16:39:39.888Z,38.17
2018-05-14T16:42:07.027Z,37.97
2018-05-14T16:44:33.435Z,34.33
2018-05-14T16:46:59.850Z,37.70
2018-05-14T16:49:26.401Z,37.67
2018-05-14T16:51:53.307Z,35.53
2018-05-14T16:54:19.983Z,36.97
2018-05-14T16:56:46.482Z,35.30
2018-05-14T16:59:13.066Z,34.27
2018-05-14T17:01:39.507Z,32.87
2018-05-14T17:04:06.002Z,35.97
2018-05-14T17:06:33.178Z,35.90
2018-05-14T17:08:59.656Z,36.77
2018-05-14T17:11:26.086Z,38.40
2018-05-14T17:13:52.508Z,38.67
2018-05-14T17:16:19.081Z,39.13
2018-05-14T17:18:45.851Z,43.07
2018-05-14T17:21:12.399Z,41.03
2018-05-14T17:23:38.936Z,43.03
2018-05-14T17:26:05.340Z,43.40
2018-05-14T17:28:31.903Z,42.60
2018-05-14T17:30:58.508Z,40.80
2018-05-14T17:33:25.055Z,35.65
2018-05-14T17:35:51.522Z,40.33
2018-05-14T17:38:17.918Z,40.75
2018-05-14T17:40:44.401Z,45.50
2018-05-14T17:43:11.643Z,45.60
2018-05-14T17:45:38.918Z,51.88
2018-05-14T17:48:05.350Z,54.10
2018-05-14T17:50:31.917Z,56.37
2018-05-14T17:52:58.608Z,56.70
2018-05-14T17:55:24.988Z,55.00
2018-05-14T17:57:51.550Z,55.55
2018-05-14T18:00:18.072Z,59.50
2018-05-14T18:02:45.526Z,58.13
2018-05-14T18:05:12.163Z,48.70
2018-05-14T18:07:39.260Z,48.83
2018-05-14T18:10:05.749Z,46.17
2018-05-14T18:12:32.263Z,42.30
2018-05-14T18:14:59.148Z,43.50
2018-05-14T18:17:25.928Z,39.90
2018-05-14T18:19:58.561Z,42.70
2018-05-14T18:22:25.067Z,41.97
2018-05-14T18:24:51.663Z,39.63
2018-05-14T18:27:25.195Z,41.35
2018-05-14T18:29:53.677Z,42.80
2018-05-14T18:32:20.263Z,40.15
2018-05-14T18:34:46.974Z,39.75
2018-05-14T18:37:13.567Z,42.30
2018-05-14T18:39:40.134Z,42.55
2018-05-14T18:42:06.650Z,43.85
2018-05-14T18:44:33.238Z,40.15
2018-05-14T18:46:59.923Z,48.53
2018-05-14T18:49:26.506Z,50.03
2018-05-14T18:51:53.900Z,44.50
2018-05-14T18:54:20.523Z,41.42
2018-05-14T18:56:47.143Z,36.03
2018-05-14T18:59:13.727Z,37.72
2018-05-14T19:01:40.270Z,37.78
2018-05-14T19:04:06.898Z,35.10
2018-05-14T19:06:37.839Z,34.63
2018-05-14T19:09:04.838Z,34.92
2018-05-14T19:11:37.612Z,36.25
2018-05-14T19:14:04.518Z,38.35
2018-05-14T19:16:41.309Z,36.10
2018-05-14T19:19:08.047Z,37.72
2018-05-14T19:21:34.642Z,39.08
2018-05-14T19:24:01.199Z,36.22
2018-05-14T19:26:27.758Z,36.60
2018-05-14T19:29:00.257Z,40.72
2018-05-14T19:31:26.778Z,39.00
2018-05-14T19:33:59.298Z,41.75
2018-05-14T19:36:25.705Z,40.03
2018-05-14T19:38:52.051Z,38.20
2018-05-14T19:41:18.454Z,40.70
2018-05-14T19:43:45.062Z,39.28
2018-05-14T19:46:11.554Z,40.25
2018-05-14T19:48:38.244Z,43.50
2018-05-14T19:51:06.601Z,40.70
2018-05-14T19:53:33.080Z,40.95
2018-05-14T19:55:59.446Z,39.22
2018-05-14T19:58:25.925Z,39.10
2018-05-14T20:00:52.302Z,40.50
2018-05-14T20:03:18.798Z,44.00
2018-05-14T20:05:45.223Z,42.85
2018-05-14T20:08:12.358Z,44.03
2018-05-14T20:10:39.544Z,49.30
2018-05-14T20:13:05.947Z,50.00
2018-05-14T20:15:33.164Z,51.47
2018-05-14T20:18:03.597Z,52.13
2018-05-14T20:20:30.034Z,49.65
2018-05-14T20:22:56.431Z,48.58
2018-05-14T20:25:22.822Z,48.28
2018-05-14T20:27:49.969Z,48.90
2018-05-14T20:30:17.178Z,51.28
2018-05-14T20:32:43.587Z,52.33
2018-05-14T20:35:10.014Z,51.17
2018-05-14T20:37:36.418Z,53.35
2018-05-14T20:40:03.618Z,51.63
2018-05-14T20:42:29.997Z,53.15
2018-05-14T20:44:57.103Z,52.53
2018-05-14T20:47:23.507Z,50.85
2018-05-14T20:49:49.951Z,54.33
2018-05-14T20:52:16.402Z,54.70
2018-05-14T20:54:42.785Z,55.15
2018-05-14T20:57:09.142Z,52.45
2018-05-14T20:59:35.521Z,51.15
2018-05-14T21:02:02.000Z,50.30
2018-05-14T21:04:28.402Z,51.35
2018-05-14T21:06:54.869Z,46.40
2018-05-14T21:09:21.262Z,45.65
2018-05-14T21:11:47.722Z,48.85
2018-05-14T21:14:14.259Z,43.80
2018-05-14T21:16:40.902Z,42.88
2018-05-14T21:19:07.247Z,44.30
2018-05-14T21:21:33.648Z,49.10
2018-05-14T21:24:00.063Z,51.35
2018-05-14T21:26:26.478Z,52.13
2018-05-14T21:28:53.589Z,53.45
2018-05-14T21:31:20.075Z,52.55
2018-05-14T21:33:47.298Z,56.58
2018-05-14T21:36:13.679Z,55.97
2018-05-14T21:38:40.036Z,50.42
2018-05-14T21:41:06.450Z,48.45
2018-05-14T21:43:32.774Z,52.38
2018-05-14T21:45:59.103Z,51.13
2018-05-14T21:48:25.436Z,50.97
2018-05-14T21:50:51.818Z,52.70
2018-05-14T21:53:18.599Z,51.90
2018-05-14T21:55:45.166Z,51.40
2018-05-14T21:58:11.675Z,54.80
2018-05-14T22:00:38.058Z,48.00
2018-05-14T22:03:04.428Z,43.75
2018-05-14T22:05:30.889Z,46.65
2018-05-14T22:07:57.240Z,41.40
2018-05-14T22:10:23.592Z,40.45
2018-05-14T22:12:50.724Z,41.40
2018-05-14T22:15:17.113Z,41.75
2018-05-14T22:17:43.444Z,40.55
2018-05-14T22:20:09.836Z,45.35
2018-05-14T22:22:36.219Z,44.33
2018-05-14T22:25:02.567Z,42.85
2018-05-14T22:27:38.546Z,43.03
2018-05-14T22:30:09.022Z,43.20
2018-05-14T22:32:36.520Z,43.83
2018-05-14T22:35:07.771Z,46.80
2018-05-14T22:37:34.137Z,45.53
2018-05-14T22:40:00.568Z,43.72
2018-05-14T22:42:26.959Z,41.13
2018-05-14T22:44:53.323Z,43.15
2018-05-14T22:47:19.777Z,42.03
2018-05-14T22:49:46.132Z,40.00
2018-05-14T22:52:12.502Z,40.60
2018-05-14T22:54:38.846Z,37.38
2018-05-14T22:57:05.186Z,31.83
2018-05-14T22:59:32.328Z,25.50
2018-05-14T23:01:58.682Z,25.50
2018-05-14T23:04:25.777Z,24.30
2018-05-14T23:06:52.899Z,22.70
2018-05-14T23:09:19.267Z,25.98
2018-05-14T23:11:45.602Z,20.42
2018-05-14T23:14:11.976Z,22.42
2018-05-14T23:16:38.349Z,22.00
2018-05-14T23:19:05.455Z,21.55
2018-05-14T23:21:31.845Z,22.33
2018-05-14T23:23:58.223Z,22.92
2018-05-14T23:26:25.680Z,22.98
2018-05-14T23:28:52.032Z,24.98
2018-05-14T23:31:21.269Z,26.48
2018-05-14T23:33:47.645Z,27.62
2018-05-14T23:36:13.993Z,27.33
2018-05-14T23:38:40.323Z,28.65
2018-05-14T23:41:11.907Z,27.77
2018-05-14T23:43:38.617Z,27.77
2018-05-14T23:46:05.770Z,29.65
2018-05-14T23:48:32.918Z,28.30
2018-05-14T23:51:00.006Z,30.40
2018-05-14T23:53:26.408Z,32.13
2018-05-14T23:55:52.764Z,31.17
2018-05-14T23:58:19.163Z,31.05
